LFRBLFRU

Guest
Details From LFRB - Brest Bretagne
To LFRU - Morlaix Ploujean
Flight Number -
Tags generated
Created
Modified
Stats Distance 26 nm / 48 km
Max Altitude 1,900 ft / 579 m
Waypoints 3
Social Downloads 3
Likes 0
Share VATSIM

Download

Looking for another format? Having issues loading an existing format? Contact us
Advertisement - Login to hide

Notes

Basic altitude profile: - Ascent Rate: 1000ft/min - Ascent Speed: 180kts - Cruise Altitude: 2300ft - Cruise Speed: 220kts - Descent Rate: 500ft/min - Descent Speed: 100kts

Route

LFRB LDV LFRU

ID Type Via Altitude Latitude Longitude Leg Dist Tot Dist Heading (true) Name
O LFRB APT - 0 ft / 0 m 48.44938˚ -4.41823˚ - 0 nm - Brest Bretagne
LDV VOR - 1,900 ft / 579 m 48.52828˚ -4.15631˚ 11 nm 11 nm 65° / 66° -
O LFRU APT - 0 ft / 0 m 48.60324˚ -3.81586˚ 14 nm 25 nm 71° / 72° Morlaix Ploujean

Altitude Profile

Advertisement - Login to hide

LFRB

Details ICAO LFRB (BES)
Name Brest Bretagne
Region France
Timezone Europe/Paris (UTC+1.0)
Stats Elevation 325 ft / 99 m (AMSL)
Location 48.449376° -4.418232°
Runways 2
Magnetic Variation 1.577° W

METAR

LFRB 121030Z AUTO 20006KT CAVOK 06/06 Q1013 NOSIG

Decode

TAF

TAF LFRB 120500Z 1206/1312 20003KT 9999 SCT030 BKN054 PROB30 TEMPO 1206/1209 5000 SHRA FEW020CB SCT025TCU BECMG 1215/1218 20010KT BECMG 1218/1221 4000 -RA TEMPO 1218/1223 21015G25KT BECMG 1310/1312 20015G25KT 3000 RA BKN010

Decode

Departure Runways

ID Width Length Bearing (true) Bearing (mag) Surface Threshold Offset Overrun Length
07L 62 ft / 19 m 2,518 ft / 768 m 71.21° 72.79° Asphalt 131 ft / 40 m 0 ft / 0 m
07R 148 ft / 45 m 10,153 ft / 3,095 m 71.16° 72.74° Asphalt 0 ft / 0 m 0 ft / 0 m
25L 148 ft / 45 m 10,153 ft / 3,095 m 251.19° 252.77° Asphalt 984 ft / 300 m 0 ft / 0 m
25R 62 ft / 19 m 2,518 ft / 768 m 251.22° 252.80° Asphalt 112 ft / 34 m 0 ft / 0 m

LFRU

Details ICAO LFRU (MXN)
Name Morlaix Ploujean
Region France
Timezone Europe/Paris (UTC+1.0)
Stats Elevation 277 ft / 84 m (AMSL)
Location 48.603238° -3.815856°
Runways 1
Magnetic Variation 1.387° W

METAR

LFRU 121030Z AUTO 22005KT CAVOK 06/03 Q1012

Decode

TAF

Not found

Destination Runways

ID Width Length Bearing (true) Bearing (mag) Surface Threshold Offset Overrun Length
04 121 ft / 37 m 5,299 ft / 1,615 m 40.00° 41.39° Asphalt 459 ft / 140 m 0 ft / 0 m
22 121 ft / 37 m 5,299 ft / 1,615 m 220.01° 221.40° Asphalt 0 ft / 0 m 0 ft / 0 m

Approach Navaids

Runway Type Ident Frequency Range Bearing (true) Bearing (mag) Slope Elevation
22 Localiser MX 110.50 MHz 18 nm / 33 km 220.12° 221.51° - 277 ft / 84 m (AMSL)
22 DME MX 110.50 MHz 18 nm / 33 km - - - 277 ft / 84 m (AMSL)

Popular Alternatives